createdAt,value
2022-12-03T00:00:37.041Z,93.50
2022-12-03T00:02:44.095Z,93.40
2022-12-03T00:04:51.586Z,93.40
2022-12-03T00:07:00.377Z,93.30
2022-12-03T00:09:07.969Z,93.10
2022-12-03T00:11:14.688Z,93.00
2022-12-03T00:13:21.770Z,92.90
2022-12-03T00:15:28.605Z,92.90
2022-12-03T00:17:35.722Z,92.90
2022-12-03T00:19:42.545Z,92.20
2022-12-03T00:21:49.831Z,92.40
2022-12-03T00:23:59.366Z,92.40
2022-12-03T00:26:06.808Z,92.10
2022-12-03T00:28:14.191Z,91.90
2022-12-03T00:30:20.963Z,91.80
2022-12-03T00:32:27.785Z,91.60
2022-12-03T00:34:34.971Z,91.30
2022-12-03T00:36:41.897Z,90.90
2022-12-03T00:38:48.768Z,90.90
2022-12-03T00:40:57.642Z,91.00
2022-12-03T00:43:04.410Z,90.80
2022-12-03T00:45:12.308Z,90.10
2022-12-03T00:47:19.082Z,90.40
2022-12-03T00:49:26.110Z,90.50
2022-12-03T00:51:32.817Z,90.50
2022-12-03T00:53:39.960Z,90.40
2022-12-03T00:55:46.937Z,90.00
2022-12-03T00:57:55.808Z,89.40
2022-12-03T01:00:02.631Z,89.10
2022-12-03T01:02:09.835Z,88.80
2022-12-03T01:04:16.752Z,88.80
2022-12-03T01:06:26.756Z,88.60
2022-12-03T01:08:33.615Z,88.50
2022-12-03T01:10:40.741Z,88.60
2022-12-03T01:12:47.564Z,88.60
2022-12-03T01:14:56.410Z,88.70
2022-12-03T01:17:03.260Z,88.80
2022-12-03T01:19:11.567Z,88.70
2022-12-03T01:21:18.441Z,88.50
2022-12-03T01:23:25.572Z,88.30
2022-12-03T01:25:32.344Z,87.60
2022-12-03T01:27:39.679Z,87.50
2022-12-03T01:29:46.504Z,87.40
2022-12-03T01:32:11.860Z,87.40
2022-12-03T01:34:18.632Z,87.60
2022-12-03T01:36:25.869Z,86.60
2022-12-03T01:38:32.689Z,86.00
2022-12-03T01:40:39.817Z,85.00
2022-12-03T01:42:47.000Z,84.40
2022-12-03T01:44:55.804Z,84.20
2022-12-03T01:47:07.252Z,83.60
2022-12-03T01:49:20.988Z,83.70
2022-12-03T01:51:27.962Z,83.50
2022-12-03T01:53:35.196Z,83.00
2022-12-03T01:55:45.547Z,80.70
2022-12-03T01:57:58.825Z,80.60
2022-12-03T02:00:07.083Z,81.10
2022-12-03T02:02:20.716Z,80.90
2022-12-03T02:04:28.183Z,81.00
2022-12-03T02:06:35.539Z,80.90
2022-12-03T02:08:42.721Z,80.50
2022-12-03T02:10:50.005Z,79.40
2022-12-03T02:13:01.490Z,78.80
2022-12-03T02:15:10.159Z,78.90
2022-12-03T02:17:19.640Z,78.50
2022-12-03T02:19:30.818Z,78.00
2022-12-03T02:21:44.244Z,77.70
2022-12-03T02:24:07.855Z,75.90
2022-12-03T02:26:16.425Z,74.30
2022-12-03T02:28:23.916Z,72.50
2022-12-03T02:30:32.642Z,73.20
2022-12-03T02:32:41.091Z,73.20
2022-12-03T02:34:49.452Z,73.20
2022-12-03T02:36:56.639Z,72.00
2022-12-03T02:39:03.916Z,72.20
2022-12-03T02:41:33.829Z,72.80
2022-12-03T02:43:41.935Z,72.40
2022-12-03T02:45:50.805Z,71.70
2022-12-03T02:48:02.293Z,71.30
2022-12-03T02:50:11.056Z,72.00
2022-12-03T02:52:18.085Z,72.10
2022-12-03T02:54:25.113Z,72.20
2022-12-03T02:56:35.008Z,72.00
2022-12-03T02:58:45.262Z,70.20
2022-12-03T03:00:53.587Z,70.40
2022-12-03T03:03:00.750Z,70.80
2022-12-03T03:05:10.850Z,68.80
2022-12-03T03:07:18.390Z,69.40
2022-12-03T03:09:26.903Z,68.80
2022-12-03T03:11:34.854Z,69.30
2022-12-03T03:13:45.055Z,69.30
2022-12-03T03:15:52.390Z,68.50
2022-12-03T03:17:59.470Z,68.30
2022-12-03T03:20:08.035Z,68.60
2022-12-03T03:22:16.393Z,69.20
2022-12-03T03:24:23.679Z,69.00
2022-12-03T03:26:30.858Z,68.70
2022-12-03T03:28:41.369Z,68.70
2022-12-03T03:30:50.755Z,68.20
2022-12-03T03:32:57.932Z,67.10
2022-12-03T03:35:05.118Z,66.80
2022-12-03T03:37:12.142Z,66.40
2022-12-03T03:39:19.277Z,66.30
2022-12-03T03:41:26.404Z,65.80
2022-12-03T03:43:35.889Z,65.80
2022-12-03T03:45:42.735Z,65.40
2022-12-03T03:47:52.608Z,65.40
2022-12-03T03:49:59.788Z,65.10
2022-12-03T03:52:06.970Z,64.70
2022-12-03T03:54:13.896Z,63.90
2022-12-03T03:56:22.922Z,64.00
2022-12-03T03:58:29.677Z,63.70
2022-12-03T04:00:39.943Z,62.90
2022-12-03T04:02:47.077Z,63.00
2022-12-03T04:04:56.461Z,63.40
2022-12-03T04:07:03.385Z,61.50
2022-12-03T04:09:10.414Z,61.60
2022-12-03T04:11:33.570Z,62.40
2022-12-03T04:13:41.316Z,62.10
2022-12-03T04:15:48.036Z,61.80
2022-12-03T04:18:08.480Z,62.00
2022-12-03T04:20:18.118Z,61.90
2022-12-03T04:22:41.790Z,61.90
2022-12-03T04:24:49.274Z,61.50
2022-12-03T04:27:12.841Z,58.40
2022-12-03T04:29:34.154Z,59.80
2022-12-03T04:31:58.026Z,60.40
2022-12-03T04:34:21.541Z,61.00
2022-12-03T04:36:30.257Z,60.70
2022-12-03T04:38:37.492Z,60.30
2022-12-03T04:41:00.698Z,60.50
2022-12-03T04:43:07.777Z,60.80
2022-12-03T04:45:14.958Z,60.40
2022-12-03T04:47:23.627Z,60.50
2022-12-03T04:49:30.448Z,60.60
2022-12-03T04:51:39.270Z,59.20
2022-12-03T04:53:46.483Z,59.70
2022-12-03T04:55:53.580Z,59.60
2022-12-03T04:58:00.354Z,59.90
2022-12-03T05:00:08.353Z,59.80
2022-12-03T05:02:15.144Z,59.60
2022-12-03T05:04:22.308Z,59.80
2022-12-03T05:06:29.183Z,59.20
2022-12-03T05:08:38.059Z,58.60
2022-12-03T05:10:44.876Z,59.30
2022-12-03T05:12:51.961Z,59.00
2022-12-03T05:14:58.985Z,56.30
2022-12-03T05:17:06.115Z,55.90
2022-12-03T05:19:13.195Z,56.90
2022-12-03T05:21:19.045Z,57.90
2022-12-03T05:23:25.968Z,56.90
2022-12-03T05:25:34.841Z,57.30
2022-12-03T05:27:41.664Z,57.90
2022-12-03T05:29:48.691Z,57.60
2022-12-03T05:31:55.721Z,58.40
2022-12-03T05:34:02.900Z,58.10
2022-12-03T05:36:09.880Z,58.10
2022-12-03T05:38:17.061Z,58.10
2022-12-03T05:40:23.984Z,59.20
2022-12-03T05:42:49.444Z,58.90
2022-12-03T05:44:56.519Z,58.90
2022-12-03T05:47:03.808Z,58.50
2022-12-03T05:49:10.632Z,58.50
2022-12-03T05:51:17.865Z,58.70
2022-12-03T05:53:24.586Z,58.50
2022-12-03T05:55:32.176Z,58.20
2022-12-03T05:57:41.097Z,58.60
2022-12-03T05:59:48.485Z,58.90
2022-12-03T06:01:55.769Z,58.70
2022-12-03T06:04:02.711Z,58.10
2022-12-03T06:06:10.778Z,57.50
2022-12-03T06:08:17.672Z,56.60
2022-12-03T06:10:25.929Z,55.90
2022-12-03T06:12:33.162Z,56.30
2022-12-03T06:14:42.084Z,56.70
2022-12-03T06:16:49.215Z,57.10
2022-12-03T06:18:56.140Z,55.90
2022-12-03T06:21:03.221Z,56.90
2022-12-03T06:23:10.093Z,56.30
2022-12-03T06:25:18.403Z,56.40
2022-12-03T06:27:26.097Z,55.70
2022-12-03T06:29:33.174Z,55.90
2022-12-03T06:31:41.844Z,56.20
2022-12-03T06:33:49.023Z,55.90
2022-12-03T06:35:55.848Z,55.50
2022-12-03T06:38:03.080Z,55.00
2022-12-03T06:40:11.234Z,55.50
2022-12-03T06:42:18.414Z,55.20
2022-12-03T06:44:25.187Z,55.60
2022-12-03T06:46:32.760Z,55.80
2022-12-03T06:48:41.345Z,56.10
2022-12-03T06:50:48.525Z,55.10
2022-12-03T06:52:55.348Z,54.80
2022-12-03T06:55:02.634Z,55.00
2022-12-03T06:57:09.565Z,55.50
2022-12-03T06:59:16.690Z,55.40
2022-12-03T07:01:24.114Z,55.30
2022-12-03T07:03:31.313Z,54.90
2022-12-03T07:05:40.691Z,55.20
2022-12-03T07:07:51.303Z,55.40
2022-12-03T07:09:58.435Z,55.20
2022-12-03T07:12:05.564Z,55.10
2022-12-03T07:14:13.872Z,55.60
2022-12-03T07:16:20.995Z,55.60
2022-12-03T07:18:27.929Z,55.70
2022-12-03T07:20:35.058Z,56.10
2022-12-03T07:22:43.673Z,55.20
2022-12-03T07:24:51.215Z,54.90
2022-12-03T07:26:58.293Z,55.30
2022-12-03T07:29:05.628Z,55.70
2022-12-03T07:31:12.440Z,55.10
2022-12-03T07:33:20.247Z,55.10
2022-12-03T07:35:27.020Z,55.80
2022-12-03T07:37:34.098Z,55.60
2022-12-03T07:39:43.123Z,55.30
2022-12-03T07:41:50.254Z,54.90
2022-12-03T07:43:58.868Z,56.00
2022-12-03T07:46:06.460Z,56.00
2022-12-03T07:48:13.693Z,55.10
2022-12-03T07:50:20.567Z,55.00
2022-12-03T07:52:28.980Z,55.30
2022-12-03T07:54:35.855Z,55.90
2022-12-03T07:56:44.773Z,55.60
2022-12-03T07:58:51.598Z,55.70
2022-12-03T08:00:58.778Z,55.60
2022-12-03T08:03:05.602Z,55.10
2022-12-03T08:05:12.886Z,55.40
2022-12-03T08:07:19.663Z,55.70
2022-12-03T08:09:26.943Z,55.00
2022-12-03T08:11:35.302Z,55.00
2022-12-03T08:13:44.379Z,54.20
2022-12-03T08:15:51.405Z,55.00
2022-12-03T08:18:00.123Z,55.60
2022-12-03T08:20:14.372Z,55.10
2022-12-03T08:22:21.759Z,55.30
2022-12-03T08:24:28.992Z,55.10
2022-12-03T08:26:35.867Z,55.10
2022-12-03T08:28:44.688Z,55.30
2022-12-03T08:31:02.105Z,55.50
2022-12-03T08:33:20.964Z,55.70
2022-12-03T08:35:29.627Z,55.60
2022-12-03T08:37:39.113Z,56.00
2022-12-03T08:39:49.470Z,56.70
2022-12-03T08:42:15.954Z,56.80
2022-12-03T08:44:30.763Z,57.40
2022-12-03T08:46:37.536Z,57.80
2022-12-03T08:48:48.658Z,57.60
2022-12-03T08:50:58.099Z,58.10
2022-12-03T08:53:28.829Z,58.10
2022-12-03T08:55:38.876Z,57.80
2022-12-03T08:57:46.163Z,57.90
2022-12-03T08:59:57.697Z,57.90
2022-12-03T09:02:04.980Z,57.90
2022-12-03T09:04:29.872Z,58.30
2022-12-03T09:06:36.700Z,58.20
2022-12-03T09:08:43.791Z,58.80
2022-12-03T09:10:50.601Z,59.10
2022-12-03T09:12:57.734Z,59.80
2022-12-03T09:15:06.602Z,60.20
2022-12-03T09:17:13.940Z,60.10
2022-12-03T09:19:20.848Z,59.90
2022-12-03T09:21:28.148Z,59.90
2022-12-03T09:23:36.866Z,60.00
2022-12-03T09:25:43.794Z,60.50
2022-12-03T09:27:51.023Z,60.90
2022-12-03T09:29:57.900Z,61.10
2022-12-03T09:32:06.861Z,60.90
2022-12-03T09:34:14.260Z,61.00
2022-12-03T09:36:21.492Z,61.40
2022-12-03T09:38:29.338Z,61.30
2022-12-03T09:40:37.186Z,61.50
2022-12-03T09:42:44.470Z,61.70
2022-12-03T09:44:51.935Z,61.60
2022-12-03T09:47:01.086Z,61.70
2022-12-03T09:49:16.117Z,62.00
2022-12-03T09:51:23.436Z,62.20
2022-12-03T09:53:31.386Z,62.90
2022-12-03T09:55:38.364Z,62.90
2022-12-03T09:57:45.450Z,63.10
2022-12-03T09:59:52.619Z,63.20
2022-12-03T10:02:01.937Z,63.20
2022-12-03T10:04:10.876Z,63.40
2022-12-03T10:06:22.212Z,63.40
2022-12-03T10:08:35.536Z,63.50
2022-12-03T10:10:44.918Z,63.80
2022-12-03T10:12:52.307Z,64.00
2022-12-03T10:14:59.541Z,64.40
2022-12-03T10:17:07.438Z,64.50
2022-12-03T10:19:23.216Z,64.80
2022-12-03T10:21:33.215Z,65.30
2022-12-03T10:23:40.191Z,65.50
2022-12-03T10:25:55.257Z,66.00
2022-12-03T10:28:04.845Z,67.50
2022-12-03T10:30:20.732Z,68.10
2022-12-03T10:32:30.626Z,69.20
2022-12-03T10:34:40.828Z,69.10
2022-12-03T10:36:47.908Z,69.00
2022-12-03T10:39:11.882Z,69.20
2022-12-03T10:41:27.563Z,70.80
2022-12-03T10:43:34.395Z,70.40
2022-12-03T10:45:42.122Z,70.00
2022-12-03T10:48:06.885Z,70.80
2022-12-03T10:50:22.097Z,74.00
2022-12-03T10:52:28.867Z,74.10
2022-12-03T10:54:38.559Z,74.40
2022-12-03T10:56:45.995Z,73.70
2022-12-03T10:58:53.535Z,73.20
2022-12-03T11:01:02.154Z,73.20
2022-12-03T11:03:21.376Z,73.30
2022-12-03T11:05:31.362Z,73.80
2022-12-03T11:07:41.709Z,74.40
2022-12-03T11:09:50.229Z,75.40
2022-12-03T11:11:57.719Z,76.00
2022-12-03T11:14:05.571Z,76.40
2022-12-03T11:16:12.625Z,77.10
2022-12-03T11:18:51.571Z,76.70
2022-12-03T11:21:17.595Z,77.10
2022-12-03T11:23:56.367Z,77.00
2022-12-03T11:26:03.650Z,77.50
2022-12-03T11:28:35.306Z,77.40
2022-12-03T11:31:02.437Z,79.30
2022-12-03T11:33:23.102Z,79.40
2022-12-03T11:35:38.375Z,78.70
2022-12-03T11:37:46.939Z,78.60
2022-12-03T11:40:39.762Z,78.30
2022-12-03T11:42:47.948Z,78.00
2022-12-03T11:45:19.452Z,77.70
2022-12-03T11:47:26.679Z,78.50
2022-12-03T11:49:50.457Z,78.30
2022-12-03T11:51:57.733Z,78.20
2022-12-03T11:54:06.561Z,78.00
2022-12-03T11:56:21.468Z,77.80
2022-12-03T11:58:31.106Z,78.00
2022-12-03T12:00:38.337Z,78.50
2022-12-03T12:02:45.156Z,78.70
2022-12-03T12:04:52.292Z,79.50
2022-12-03T12:07:02.649Z,80.00
2022-12-03T12:09:11.673Z,80.20
2022-12-03T12:11:22.183Z,80.20
2022-12-03T12:13:53.224Z,79.60
2022-12-03T12:16:00.717Z,79.70
2022-12-03T12:18:38.922Z,79.70
2022-12-03T12:20:46.205Z,80.90
2022-12-03T12:22:53.284Z,80.50
2022-12-03T12:25:03.387Z,80.80
2022-12-03T12:27:11.694Z,81.30
2022-12-03T12:29:18.928Z,81.50
2022-12-03T12:31:25.988Z,81.90
2022-12-03T12:33:35.695Z,82.00
2022-12-03T12:35:43.694Z,82.10
2022-12-03T12:37:59.838Z,82.20
2022-12-03T12:40:16.551Z,82.40
2022-12-03T12:42:37.809Z,82.70
2022-12-03T12:44:44.834Z,82.70
2022-12-03T12:46:54.919Z,82.60
2022-12-03T12:49:02.625Z,82.60
2022-12-03T12:51:16.022Z,82.50
2022-12-03T12:53:26.616Z,82.20
2022-12-03T12:55:35.547Z,82.30
2022-12-03T12:57:42.360Z,82.70
2022-12-03T12:59:49.543Z,83.00
2022-12-03T13:01:56.423Z,83.60
2022-12-03T13:04:04.265Z,83.60
2022-12-03T13:06:15.236Z,83.40
2022-12-03T13:08:27.094Z,83.40
2022-12-03T13:10:44.497Z,83.90
2022-12-03T13:12:51.372Z,84.20
2022-12-03T13:15:02.807Z,83.90
2022-12-03T13:17:18.177Z,83.50
2022-12-03T13:19:28.019Z,83.60
2022-12-03T13:21:41.499Z,83.60
2022-12-03T13:23:48.681Z,83.70
2022-12-03T13:26:03.747Z,83.90
2022-12-03T13:28:17.790Z,84.30
2022-12-03T13:30:27.840Z,84.60
2022-12-03T13:32:39.577Z,84.60
2022-12-03T13:34:47.698Z,84.80
2022-12-03T13:36:58.595Z,85.10
2022-12-03T13:39:12.797Z,85.20
2022-12-03T13:41:41.379Z,85.20
2022-12-03T13:43:48.255Z,85.30
2022-12-03T13:45:57.101Z,85.70
2022-12-03T13:48:05.331Z,85.20
2022-12-03T13:50:23.929Z,85.00
2022-12-03T13:52:35.053Z,85.00
2022-12-03T13:54:42.951Z,84.70
2022-12-03T13:56:51.773Z,84.40
2022-12-03T13:59:01.111Z,85.30
2022-12-03T14:01:08.302Z,85.50
2022-12-03T14:03:15.533Z,85.20
2022-12-03T14:05:22.446Z,84.50
2022-12-03T14:07:29.654Z,84.30
2022-12-03T14:09:36.552Z,84.00
2022-12-03T14:12:00.121Z,84.30
2022-12-03T14:14:08.581Z,84.40
2022-12-03T14:16:16.840Z,84.20
2022-12-03T14:18:23.658Z,83.80
2022-12-03T14:20:30.689Z,83.00
2022-12-03T14:22:38.995Z,82.30
2022-12-03T14:24:47.918Z,81.60
2022-12-03T14:26:54.791Z,81.60
2022-12-03T14:29:05.860Z,81.20
2022-12-03T14:31:17.087Z,80.80
2022-12-03T14:33:23.915Z,80.90
2022-12-03T14:35:30.787Z,81.00
2022-12-03T14:37:37.619Z,81.30
2022-12-03T14:39:44.740Z,81.30
2022-12-03T14:42:10.561Z,81.20
2022-12-03T14:44:17.592Z,81.40
2022-12-03T14:46:26.283Z,81.90
2022-12-03T14:48:33.695Z,82.30
2022-12-03T14:50:40.574Z,82.80
2022-12-03T14:52:47.797Z,83.70
2022-12-03T14:54:54.521Z,84.00
2022-12-03T14:57:01.602Z,84.30
2022-12-03T14:59:08.627Z,84.60
2022-12-03T15:01:15.866Z,85.10
2022-12-03T15:03:24.937Z,85.30
2022-12-03T15:05:31.915Z,85.30
2022-12-03T15:07:40.414Z,84.90
2022-12-03T15:09:47.561Z,84.60
2022-12-03T15:11:56.074Z,84.90
2022-12-03T15:14:03.356Z,85.00
2022-12-03T15:16:10.825Z,85.40
2022-12-03T15:18:18.588Z,85.70
2022-12-03T15:20:27.051Z,86.00
2022-12-03T15:22:34.180Z,86.40
2022-12-03T15:24:41.003Z,86.30
2022-12-03T15:26:48.086Z,87.20
2022-12-03T15:28:54.957Z,87.30
2022-12-03T15:31:02.162Z,87.30
2022-12-03T15:33:09.218Z,87.50
2022-12-03T15:35:19.523Z,87.70
2022-12-03T15:37:29.059Z,87.80
2022-12-03T15:39:37.369Z,88.00
2022-12-03T15:41:44.189Z,88.10
2022-12-03T15:43:52.352Z,88.10
2022-12-03T15:45:59.218Z,87.80
2022-12-03T15:48:06.506Z,87.90
2022-12-03T15:50:14.510Z,87.30
2022-12-03T15:52:21.480Z,87.20
2022-12-03T15:54:29.993Z,87.20
2022-12-03T15:56:38.508Z,87.20
2022-12-03T15:58:45.436Z,87.20
2022-12-03T16:00:52.819Z,87.30
2022-12-03T16:02:59.764Z,87.30
2022-12-03T16:05:09.792Z,87.50
2022-12-03T16:07:16.719Z,87.90
2022-12-03T16:09:27.035Z,88.00
2022-12-03T16:11:36.201Z,87.80
2022-12-03T16:13:44.510Z,87.60
2022-12-03T16:15:51.381Z,87.90
2022-12-03T16:17:58.874Z,88.00
2022-12-03T16:20:05.599Z,88.00
2022-12-03T16:22:12.733Z,87.80
2022-12-03T16:24:19.650Z,87.70
2022-12-03T16:26:27.037Z,87.60
2022-12-03T16:28:35.652Z,87.80
2022-12-03T16:30:42.892Z,87.60
2022-12-03T16:32:49.709Z,87.70
2022-12-03T16:34:56.991Z,87.80
2022-12-03T16:37:03.765Z,87.60
2022-12-03T16:39:14.837Z,87.70
2022-12-03T16:41:23.454Z,87.70
2022-12-03T16:43:30.992Z,87.70
2022-12-03T16:46:03.473Z,87.80
2022-12-03T16:48:10.653Z,87.90
2022-12-03T16:50:24.456Z,88.30
2022-12-03T16:52:36.079Z,88.50
2022-12-03T16:54:42.945Z,88.80
2022-12-03T16:56:50.179Z,89.00
2022-12-03T16:58:57.211Z,89.20
2022-12-03T17:01:06.139Z,89.20
2022-12-03T17:03:13.067Z,89.20
2022-12-03T17:05:20.287Z,89.20
2022-12-03T17:07:27.169Z,89.30
2022-12-03T17:09:34.293Z,89.20
2022-12-03T17:11:41.014Z,89.30
2022-12-03T17:13:48.195Z,89.30
2022-12-03T17:15:55.221Z,89.50
2022-12-03T17:18:04.502Z,89.40
2022-12-03T17:20:13.578Z,89.40
2022-12-03T17:22:20.713Z,89.60
2022-12-03T17:24:27.890Z,89.80
2022-12-03T17:26:35.229Z,89.70
2022-12-03T17:28:42.102Z,89.80
2022-12-03T17:30:49.354Z,90.00
2022-12-03T17:32:56.365Z,89.80
2022-12-03T17:35:05.294Z,89.70
2022-12-03T17:37:12.056Z,89.20
2022-12-03T17:39:19.445Z,88.90
2022-12-03T17:41:27.237Z,88.70
2022-12-03T17:43:34.472Z,88.90
2022-12-03T17:45:41.686Z,89.10
2022-12-03T17:47:48.837Z,89.50
2022-12-03T17:49:56.215Z,90.10
2022-12-03T17:52:06.424Z,90.20
2022-12-03T17:54:13.352Z,90.30
2022-12-03T17:56:20.480Z,90.40
2022-12-03T17:58:27.765Z,90.30
2022-12-03T18:00:34.949Z,90.40
2022-12-03T18:02:41.769Z,90.70
2022-12-03T18:04:48.848Z,90.80
2022-12-03T18:07:00.606Z,90.90
2022-12-03T18:09:11.095Z,91.20
2022-12-03T18:11:17.970Z,91.10
2022-12-03T18:13:25.205Z,91.20
2022-12-03T18:15:32.437Z,90.90
2022-12-03T18:17:40.541Z,90.90
2022-12-03T18:19:47.361Z,90.80
2022-12-03T18:21:54.503Z,90.60
2022-12-03T18:24:04.081Z,90.70
2022-12-03T18:26:13.412Z,90.50
2022-12-03T18:28:20.236Z,90.40
2022-12-03T18:30:27.262Z,90.00
2022-12-03T18:32:34.108Z,89.70
2022-12-03T18:34:41.168Z,90.00
2022-12-03T18:36:48.558Z,89.70
2022-12-03T18:38:57.374Z,89.80
2022-12-03T18:41:05.272Z,89.90
2022-12-03T18:43:17.982Z,89.90
2022-12-03T18:45:24.857Z,90.30
2022-12-03T18:47:32.876Z,90.40
2022-12-03T18:49:39.785Z,90.50
2022-12-03T18:51:48.331Z,90.10
2022-12-03T18:53:55.477Z,89.70
2022-12-03T18:56:02.352Z,90.00
2022-12-03T18:58:09.533Z,90.10
2022-12-03T19:00:19.685Z,90.20
2022-12-03T19:03:01.159Z,90.00
2022-12-03T19:04:53.708Z,90.00
2022-12-03T19:07:01.409Z,90.20
2022-12-03T19:09:08.841Z,90.30
2022-12-03T19:11:16.177Z,90.40
2022-12-03T19:13:23.357Z,90.30
2022-12-03T19:15:31.973Z,90.10
2022-12-03T19:17:40.587Z,90.00
2022-12-03T19:19:47.461Z,90.00
2022-12-03T19:21:54.695Z,90.10
2022-12-03T19:24:24.146Z,90.20
2022-12-03T19:26:28.719Z,90.50
2022-12-03T19:28:36.057Z,90.50
2022-12-03T19:30:44.926Z,90.20
2022-12-03T19:32:52.725Z,90.20
2022-12-03T19:34:59.902Z,90.60
2022-12-03T19:37:06.674Z,90.70
2022-12-03T19:39:13.844Z,91.00
2022-12-03T19:41:20.940Z,91.00
2022-12-03T19:43:28.014Z,90.90
2022-12-03T19:45:35.060Z,91.10
2022-12-03T19:47:43.812Z,90.70
2022-12-03T19:49:50.839Z,90.60
2022-12-03T19:51:58.178Z,90.80
2022-12-03T19:54:05.356Z,90.90
2022-12-03T19:56:14.636Z,91.00
2022-12-03T19:58:21.461Z,91.20
2022-12-03T20:00:29.410Z,91.20
2022-12-03T20:02:36.402Z,91.30
2022-12-03T20:04:45.256Z,91.30
2022-12-03T20:06:52.132Z,91.20
2022-12-03T20:09:00.395Z,91.20
2022-12-03T20:11:16.992Z,90.80
2022-12-03T20:13:24.328Z,90.50
2022-12-03T20:15:31.867Z,90.50
2022-12-03T20:17:39.048Z,90.60
2022-12-03T20:19:47.613Z,90.60
2022-12-03T20:22:00.717Z,90.40
2022-12-03T20:24:10.067Z,90.50
2022-12-03T20:26:19.195Z,90.30
2022-12-03T20:28:26.015Z,90.30
2022-12-03T20:30:33.404Z,90.50
2022-12-03T20:32:45.079Z,90.70
2022-12-03T20:34:54.064Z,90.60
2022-12-03T20:37:00.836Z,90.30
2022-12-03T20:39:10.374Z,90.20
2022-12-03T20:41:19.449Z,90.30
2022-12-03T20:43:26.632Z,90.30
2022-12-03T20:45:33.467Z,90.40
2022-12-03T20:47:40.584Z,90.50
2022-12-03T20:49:47.254Z,90.70
2022-12-03T20:51:58.680Z,90.90
2022-12-03T20:54:09.502Z,91.30
2022-12-03T20:56:21.547Z,91.70
2022-12-03T20:58:28.523Z,91.90
2022-12-03T21:00:35.910Z,92.00
2022-12-03T21:02:43.138Z,92.10
2022-12-03T21:04:50.222Z,92.10
2022-12-03T21:06:58.839Z,92.00
2022-12-03T21:09:06.377Z,92.20
2022-12-03T21:11:15.046Z,92.40
2022-12-03T21:13:23.257Z,92.00
2022-12-03T21:15:32.581Z,92.10
2022-12-03T21:17:39.351Z,92.80
2022-12-03T21:19:46.534Z,92.90
2022-12-03T21:21:53.409Z,93.30
2022-12-03T21:24:02.229Z,93.60
2022-12-03T21:26:10.644Z,93.80
2022-12-03T21:28:17.873Z,93.70
2022-12-03T21:30:24.731Z,93.70
2022-12-03T21:32:31.981Z,93.70
2022-12-03T21:34:38.855Z,93.60
2022-12-03T21:36:46.909Z,93.50
2022-12-03T21:38:54.190Z,93.50
2022-12-03T21:41:03.983Z,93.60
2022-12-03T21:43:10.755Z,93.60
2022-12-03T21:45:18.039Z,93.60
2022-12-03T21:47:24.914Z,93.90
2022-12-03T21:49:32.458Z,94.10
2022-12-03T21:51:39.483Z,94.10
2022-12-03T21:53:46.509Z,94.10
2022-12-03T21:55:53.333Z,94.30
2022-12-03T21:58:02.204Z,94.60
2022-12-03T22:00:10.358Z,94.60
2022-12-03T22:02:17.735Z,94.70
2022-12-03T22:04:24.927Z,94.70
2022-12-03T22:06:32.468Z,94.60
2022-12-03T22:08:39.343Z,94.80
2022-12-03T22:10:46.525Z,94.90
2022-12-03T22:12:53.298Z,94.90
2022-12-03T22:15:02.121Z,95.00
2022-12-03T22:17:08.937Z,95.20
2022-12-03T22:19:16.375Z,95.30
2022-12-03T22:21:25.553Z,95.70
2022-12-03T22:23:34.167Z,96.00
2022-12-03T22:25:41.045Z,96.30
2022-12-03T22:27:48.020Z,96.50
2022-12-03T22:29:55.153Z,96.70
2022-12-03T22:32:04.124Z,96.90
2022-12-03T22:34:10.949Z,96.80
2022-12-03T22:36:21.585Z,96.70
2022-12-03T22:38:29.103Z,96.60
2022-12-03T22:40:36.435Z,96.40
2022-12-03T22:42:49.277Z,96.40
2022-12-03T22:44:57.660Z,96.40
2022-12-03T22:47:06.734Z,96.60
2022-12-03T22:49:14.633Z,96.70
2022-12-03T22:51:23.557Z,96.90
2022-12-03T22:53:30.379Z,96.80
2022-12-03T22:55:37.716Z,96.70
2022-12-03T22:57:44.588Z,96.60
2022-12-03T22:59:51.706Z,96.50
2022-12-03T23:01:58.765Z,96.30
2022-12-03T23:04:09.201Z,96.30
2022-12-03T23:06:16.541Z,96.10
2022-12-03T23:08:24.952Z,96.00
2022-12-03T23:10:34.058Z,95.80
2022-12-03T23:12:41.414Z,95.80
2022-12-03T23:14:48.235Z,95.60
2022-12-03T23:16:55.343Z,95.50
2022-12-03T23:19:02.909Z,95.20
2022-12-03T23:21:11.935Z,95.30
2022-12-03T23:23:19.627Z,95.30
2022-12-03T23:25:27.011Z,95.40
2022-12-03T23:27:33.785Z,95.30
2022-12-03T23:29:40.811Z,95.20
2022-12-03T23:31:47.589Z,95.00
2022-12-03T23:33:55.384Z,94.90
2022-12-03T23:36:02.409Z,94.80
2022-12-03T23:38:11.433Z,94.80
2022-12-03T23:40:18.767Z,94.60
2022-12-03T23:42:26.104Z,94.70
2022-12-03T23:44:32.925Z,95.00
2022-12-03T23:46:43.410Z,95.00
2022-12-03T23:48:50.310Z,95.00
2022-12-03T23:50:57.440Z,94.90
2022-12-03T23:53:04.314Z,95.30
2022-12-03T23:55:13.802Z,95.50
2022-12-03T23:57:20.982Z,96.00
2022-12-03T23:59:28.214Z,96.20
